Time;durP1;ratioP1;P1;durP2;ratioP2;P2;SDS_P1;SDS_P2;PMS_P1;PMS_P2;Temp;Humidity;BMP_temperature;BMP_pressure;BME280_temperature;BME280_humidity;BME280_pressure;Samples;Min_cycle;Max_cycle;Signal;HPM_P1;HPM_P2
2022/09/16 03:02:00;;;;;;;12.18;1.70;;;;;;;10.79;65.61;99883.94;5902369;23;20276;-66
2022/09/16 03:04:28;;;;;;;8.45;2.10;;;;;;;10.86;65.34;99882.19;4980760;28;20042;-64
2022/09/16 03:06:54;;;;;;;7.72;2.20;;;;;;;10.86;65.34;99889.38;4986882;28;20043;-64
2022/09/16 03:09:23;;;;;;;13.00;2.13;;;;;;;10.70;65.88;99885.00;4973692;28;20046;-67
2022/09/16 03:12:27;;;;;;;8.02;2.00;;;;;;;10.53;66.39;99884.31;4986086;28;20043;-66
2022/09/16 03:14:56;;;;;;;13.52;3.13;;;;;;;10.63;66.20;99887.56;4972772;28;20092;-67
2022/09/16 03:17:45;;;;;;;9.25;2.50;;;;;;;10.68;66.10;99889.72;4993825;28;20038;-65
2022/09/16 03:20:25;;;;;;;10.00;2.55;;;;;;;10.62;66.21;99901.19;4981633;28;20051;-64
2022/09/16 03:22:59;;;;;;;9.82;2.10;;;;;;;10.62;66.32;99890.47;4974356;28;20043;-65
2022/09/16 03:25:41;;;;;;;13.15;2.20;;;;;;;10.73;66.04;99881.97;4988335;28;20237;-67
2022/09/16 03:28:29;;;;;;;11.75;2.58;;;;;;;10.54;66.84;99888.66;4994022;28;20050;-67
2022/09/16 03:31:05;;;;;;;10.32;2.92;;;;;;;10.47;67.02;99885.00;4993559;28;20042;-68
2022/09/16 03:33:35;;;;;;;16.45;3.47;;;;;;;10.43;67.05;99887.19;4994045;28;20047;-76
2022/09/16 03:36:04;;;;;;;7.03;2.40;;;;;;;10.64;66.54;99891.91;4994411;28;20050;-76
2022/09/16 03:38:34;;;;;;;8.68;2.65;;;;;;;10.47;67.04;99882.31;4993226;28;20414;-76
2022/09/16 03:41:06;;;;;;;9.52;3.13;;;;;;;10.50;66.74;99877.44;4993524;28;20069;-76
2022/09/16 03:43:32;;;;;;;;;;;;;;;10.55;66.77;99878.75;4994182;28;20074;-75
2022/09/16 03:45:59;;;;;;;9.32;3.22;;;;;;;10.45;67.03;99879.00;4993209;28;19922;-75
2022/09/16 03:48:25;;;;;;;12.68;3.00;;;;;;;10.46;67.01;99881.47;4993453;28;20088;-76
2022/09/16 03:50:52;;;;;;;7.00;2.53;;;;;;;10.61;66.58;99876.19;4993926;28;20065;-76
2022/09/16 03:53:18;;;;;;;9.50;2.75;;;;;;;10.57;66.50;99872.19;4992209;28;20053;-72
2022/09/16 03:55:48;;;;;;;15.10;3.22;;;;;;;10.66;66.22;99878.34;4993734;28;20046;-81
2022/09/16 03:58:15;;;;;;;10.82;2.75;;;;;;;10.69;66.05;99880.66;4993646;28;20042;-75
2022/09/16 04:00:41;;;;;;;10.52;3.22;;;;;;;10.48;66.86;99884.00;4993908;28;20054;-75
2022/09/16 04:03:08;;;;;;;8.13;3.17;;;;;;;10.52;66.81;99879.13;4992701;28;20053;-76
2022/09/16 04:05:34;;;;;;;13.80;3.30;;;;;;;10.55;66.60;99879.63;4993429;28;20053;-75
2022/09/16 04:08:01;;;;;;;9.68;3.22;;;;;;;10.53;66.42;99868.22;4993295;28;20050;-75
2022/09/16 04:10:27;;;;;;;12.80;2.72;;;;;;;10.62;66.26;99869.00;4989872;28;20050;-77
2022/09/16 04:12:57;;;;;;;8.18;2.60;;;;;;;10.55;66.31;99863.53;4974391;28;20478;-76
2022/09/16 04:15:24;;;;;;;10.10;2.47;;;;;;;10.61;66.21;99864.63;4974193;28;20042;-75
2022/09/16 04:17:50;;;;;;;13.85;3.33;;;;;;;10.31;66.91;99877.09;4973957;28;20072;-75
2022/09/16 04:20:17;;;;;;;14.45;2.92;;;;;;;10.34;67.15;99874.88;4973974;28;20398;-76
2022/09/16 04:22:43;;;;;;;13.02;2.70;;;;;;;10.48;66.83;99874.09;4973717;28;20491;-75
2022/09/16 04:25:10;;;;;;;9.52;2.88;;;;;;;10.44;66.85;99879.97;4973697;28;20053;-76
2022/09/16 04:27:37;;;;;;;12.18;3.15;;;;;;;10.48;66.44;99878.63;4973716;28;20541;-76
2022/09/16 04:30:04;;;;;;;8.30;2.67;;;;;;;10.39;66.88;99882.38;4973742;28;20514;-76
2022/09/16 04:32:30;;;;;;;7.60;2.40;;;;;;;10.44;66.59;99880.84;4972808;28;20054;-75
2022/09/16 04:34:57;;;;;;;8.75;2.92;;;;;;;10.50;66.50;99882.81;4973355;28;20050;-76
2022/09/16 04:37:23;;;;;;;10.45;2.53;;;;;;;10.39;66.51;99877.03;4973137;28;20051;-76
2022/09/16 04:39:50;;;;;;;8.73;3.03;;;;;;;10.52;66.54;99879.13;4973487;28;20047;-73
2022/09/16 04:42:16;;;;;;;7.05;2.58;;;;;;;10.18;67.29;99872.31;4973532;28;20113;-74
2022/09/16 04:44:43;;;;;;;10.18;2.92;;;;;;;10.40;66.64;99874.16;4973294;28;20049;-75
2022/09/16 04:47:10;;;;;;;8.93;2.58;;;;;;;10.44;66.59;99870.13;4973418;28;20043;-76
2022/09/16 04:49:36;;;;;;;6.40;2.42;;;;;;;10.32;66.79;99874.22;4974094;28;20128;-76
2022/09/16 04:52:03;;;;;;;9.95;3.22;;;;;;;10.13;67.29;99870.19;4973894;28;20054;-74
2022/09/16 04:54:29;;;;;;;22.35;4.53;;;;;;;10.27;66.85;99865.91;4978675;28;20054;-74
2022/09/16 04:56:56;;;;;;;9.38;2.45;;;;;;;10.34;66.55;99869.53;4978294;28;20043;-75
2022/09/16 04:59:23;;;;;;;8.82;2.80;;;;;;;10.41;66.30;99862.44;4980727;28;20051;-73
2022/09/16 05:01:49;;;;;;;12.95;2.58;;;;;;;10.58;65.61;99870.34;4980980;28;20054;-70
2022/09/16 05:04:16;;;;;;;9.43;2.58;;;;;;;10.47;65.75;99872.41;4962028;28;20057;-74
2022/09/16 05:06:43;;;;;;;13.02;2.28;;;;;;;10.38;66.03;99867.31;4961508;28;20051;-74
2022/09/16 05:09:11;;;;;;;13.48;2.65;;;;;;;10.39;66.09;99872.50;4962467;28;20062;-74
2022/09/16 05:11:39;;;;;;;8.52;2.05;;;;;;;10.36;65.99;99878.22;4951619;28;20055;-74
2022/09/16 05:14:09;;;;;;;15.02;2.75;;;;;;;10.36;66.21;99869.34;4943146;29;20051;-73
2022/09/16 05:16:36;;;;;;;13.18;2.67;;;;;;;10.47;65.85;99872.41;4940242;29;20492;-66
2022/09/16 05:19:06;;;;;;;9.93;2.33;;;;;;;10.47;65.60;99871.59;4933817;28;20051;-65
2022/09/16 05:21:35;;;;;;;11.07;2.47;;;;;;;10.31;65.92;99864.53;4934349;29;20065;-66
2022/09/16 05:24:04;;;;;;;9.02;2.47;;;;;;;10.39;65.87;99872.50;4934126;28;20047;-66
2022/09/16 05:26:34;;;;;;;14.52;2.35;;;;;;;10.42;65.83;99874.81;4933323;29;20059;-72
2022/09/16 05:29:03;;;;;;;15.00;2.22;;;;;;;10.42;65.72;99871.31;4933907;28;20044;-65
2022/09/16 05:31:31;;;;;;;34.70;3.53;;;;;;;10.42;65.83;99869.44;4933417;28;20054;-66
2022/09/16 05:34:05;;;;;;;17.98;2.47;;;;;;;10.27;66.13;99868.59;4932636;28;20054;-66
2022/09/16 05:36:36;;;;;;;7.65;2.22;;;;;;;10.40;65.69;99867.97;4944752;28;20046;-66
2022/09/16 05:39:02;;;;;;;20.17;2.45;;;;;;;10.69;64.83;99859.22;4953356;28;20062;-66
2022/09/16 05:41:53;;;;;;;11.63;2.20;;;;;;;10.41;65.58;99865.13;4951345;28;20047;-65
2022/09/16 05:44:19;;;;;;;11.02;2.50;;;;;;;10.37;65.92;99871.81;4952782;28;20055;-65
2022/09/16 05:46:46;;;;;;;10.80;2.80;;;;;;;10.57;65.15;99877.56;4952552;28;20043;-65
2022/09/16 05:49:12;;;;;;;12.75;2.42;;;;;;;10.49;65.28;99878.44;4952565;28;20054;-64
2022/09/16 05:51:40;;;;;;;15.32;2.65;;;;;;;10.49;65.56;99873.09;4952161;28;20070;-76
2022/09/16 05:54:07;;;;;;;10.52;2.15;;;;;;;10.68;64.76;99868.25;4952496;28;20115;-77
2022/09/16 05:56:34;;;;;;;5.50;2.17;;;;;;;10.77;64.12;99867.16;4952860;28;20491;-76
2022/09/16 05:59:01;;;;;;;8.55;2.22;;;;;;;10.81;64.10;99876.50;4952624;28;20051;-76
2022/09/16 06:01:33;;;;;;;8.00;2.20;;;;;;;10.72;64.27;99872.22;4955546;28;20047;-74
2022/09/16 06:04:02;;;;;;;13.25;2.30;;;;;;;10.72;64.38;99865.03;4977454;28;20050;-74
2022/09/16 06:06:31;;;;;;;18.20;3.20;;;;;;;10.82;64.16;99869.28;4979256;28;20043;-74
2022/09/16 06:09:11;;;;;;;12.70;3.08;;;;;;;10.66;64.32;99857.72;4978330;28;20066;-74
2022/09/16 06:11:44;;;;;;;10.98;2.10;;;;;;;10.95;63.43;99866.81;4991569;28;20051;-74
2022/09/16 06:14:12;;;;;;;16.55;4.97;;;;;;;11.10;63.37;99872.19;5000252;28;20058;-73
2022/09/16 06:16:39;;;;;;;17.88;4.45;;;;;;;10.96;63.75;99874.69;5000542;28;20069;-74
2022/09/16 06:19:11;;;;;;;11.95;4.72;;;;;;;10.87;63.62;99873.09;4999649;28;20061;-74
2022/09/16 06:21:39;;;;;;;16.00;2.72;;;;;;;11.08;63.39;99867.03;5000582;28;20047;-73
2022/09/16 06:24:09;;;;;;;10.05;2.30;;;;;;;11.38;62.36;99865.16;4999798;28;20057;-73
2022/09/16 06:26:37;;;;;;;7.05;2.30;;;;;;;11.51;62.09;99869.84;4999372;28;20053;-73
2022/09/16 06:29:05;;;;;;;8.23;1.88;;;;;;;11.47;61.82;99868.56;4998752;28;20058;-73
2022/09/16 06:31:32;;;;;;;10.55;2.10;;;;;;;11.87;60.71;99872.63;4997423;28;20042;-74
2022/09/16 06:33:59;;;;;;;5.22;1.77;;;;;;;11.78;60.56;99871.06;4997461;28;20047;-72
2022/09/16 06:36:31;;;;;;;9.32;2.28;;;;;;;11.59;60.63;99867.09;4997719;28;20414;-74
2022/09/16 06:38:58;;;;;;;12.55;1.65;;;;;;;11.72;60.67;99865.59;4997876;28;20057;-73
2022/09/16 06:41:25;;;;;;;8.35;1.95;;;;;;;11.37;61.65;99868.03;4996273;28;20051;-73
2022/09/16 06:43:51;;;;;;;6.30;2.25;;;;;;;11.75;60.38;99862.53;4997786;28;20498;-72
2022/09/16 06:46:26;;;;;;;11.32;2.55;;;;;;;12.00;59.83;99860.34;5002293;28;20054;-73
2022/09/16 06:48:56;;;;;;;9.88;2.00;;;;;;;12.14;59.28;99864.81;5000453;28;20069;-73
2022/09/16 06:51:30;;;;;;;7.45;2.10;;;;;;;12.11;59.22;99870.59;5000157;28;20061;-74
2022/09/16 06:54:03;;;;;;;7.47;2.03;;;;;;;11.96;59.34;99859.88;4999266;28;20532;-75
2022/09/16 06:56:29;;;;;;;6.82;2.00;;;;;;;12.55;58.44;99864.16;4999707;28;20046;-74
2022/09/16 06:58:56;;;;;;;9.23;2.55;;;;;;;12.63;58.02;99864.88;4988590;28;20049;-73
2022/09/16 07:01:25;;;;;;;8.27;1.92;;;;;;;12.48;57.94;99869.50;4997529;28;20056;-73
2022/09/16 07:03:53;;;;;;;10.23;2.03;;;;;;;12.34;57.81;99876.59;4997342;28;20042;-72
2022/09/16 07:06:21;;;;;;;9.45;1.90;;;;;;;12.53;57.59;99877.00;4998909;28;20162;-74
2022/09/16 07:08:48;;;;;;;7.55;2.40;;;;;;;12.50;57.80;99872.00;4998122;28;20058;-74
2022/09/16 07:11:20;;;;;;;14.57;2.10;;;;;;;12.75;57.56;99875.13;4968328;28;20046;-75
2022/09/16 07:13:48;;;;;;;10.40;2.22;;;;;;;13.07;56.56;99868.31;4975765;28;20054;-74
2022/09/16 07:16:17;;;;;;;14.30;2.70;;;;;;;12.99;56.15;99872.00;4976140;28;20042;-74
2022/09/16 07:18:45;;;;;;;14.60;2.20;;;;;;;13.40;54.91;99879.28;4975618;28;20057;-75
2022/09/16 07:21:14;;;;;;;11.32;2.13;;;;;;;14.22;52.66;99867.59;4975457;28;20055;-75
2022/09/16 07:23:42;;;;;;;6.38;1.52;;;;;;;14.71;51.39;99874.50;4973944;28;20051;-73
2022/09/16 07:26:30;;;;;;;14.60;2.30;;;;;;;14.46;51.37;99870.72;4974547;28;20050;-68
2022/09/16 07:29:01;;;;;;;10.60;1.75;;;;;;;14.61;51.13;99868.66;4973605;28;20046;-65
2022/09/16 07:31:31;;;;;;;8.75;1.98;;;;;;;14.81;50.72;99874.09;4973520;28;20046;-65
2022/09/16 07:34:00;;;;;;;10.95;1.83;;;;;;;16.25;46.99;99880.25;4973936;28;20062;-67
2022/09/16 07:36:33;;;;;;;8.90;1.50;;;;;;;15.69;47.69;99871.81;4974011;28;20051;-66
2022/09/16 07:38:59;;;;;;;10.68;1.60;;;;;;;16.44;45.48;99873.91;4973678;28;20050;-65
2022/09/16 07:41:32;;;;;;;12.80;1.80;;;;;;;16.53;44.93;99878.00;4967807;28;20049;-66
2022/09/16 07:43:59;;;;;;;11.38;2.30;;;;;;;16.59;45.27;99877.13;4973150;28;20051;-65
2022/09/16 07:46:28;;;;;;;8.15;1.75;;;;;;;17.06;43.89;99880.28;4972554;28;20050;-65
2022/09/16 07:48:55;;;;;;;9.45;1.23;;;;;;;17.35;43.06;99880.63;4973522;28;20499;-66
2022/09/16 07:51:24;;;;;;;9.50;1.80;;;;;;;17.00;44.05;99883.03;4973273;28;20049;-65
2022/09/16 07:53:58;;;;;;;5.35;1.20;;;;;;;15.94;46.19;99884.59;4973625;28;20054;-65
2022/09/16 07:56:27;;;;;;;9.00;1.92;;;;;;;15.56;47.40;99885.34;4973606;28;20066;-64
2022/09/16 07:58:55;;;;;;;6.15;1.45;;;;;;;15.46;46.86;99890.38;4973690;28;20053;-66
2022/09/16 08:01:23;;;;;;;14.07;2.60;;;;;;;14.90;48.54;99890.91;4972845;28;20101;-70
2022/09/16 08:03:50;;;;;;;8.82;1.42;;;;;;;14.68;49.38;99888.38;4973653;28;20127;-65
2022/09/16 08:06:19;;;;;;;7.45;1.60;;;;;;;14.24;50.31;99889.78;4973617;28;20051;-65
2022/09/16 08:08:46;;;;;;;13.73;1.48;;;;;;;14.41;50.56;99882.13;4972865;28;20046;-64
2022/09/16 08:11:13;;;;;;;4.97;1.30;;;;;;;14.61;50.11;99892.94;4982272;28;20126;-64
2022/09/16 08:13:42;;;;;;;9.98;1.55;;;;;;;14.64;49.39;99889.00;4992138;28;20046;-64
2022/09/16 08:16:14;;;;;;;7.82;1.60;;;;;;;14.40;49.73;99904.75;4991524;28;20050;-64
2022/09/16 08:18:41;;;;;;;9.73;1.27;;;;;;;14.45;49.58;99887.94;4991506;28;20049;-64
2022/09/16 08:21:12;;;;;;;7.63;1.60;;;;;;;13.90;51.25;99892.59;4992735;28;20113;-65
2022/09/16 08:23:39;;;;;;;14.52;1.67;;;;;;;13.50;52.21;99892.41;4991923;28;20050;-64
2022/09/16 08:26:08;;;;;;;6.53;1.27;;;;;;;13.95;51.36;99895.53;4990367;28;20050;-65
2022/09/16 08:28:36;;;;;;;9.75;1.83;;;;;;;14.31;50.47;99895.19;4992349;28;20053;-66
2022/09/16 08:31:17;;;;;;;15.10;1.65;;;;;;;14.65;49.57;99896.88;4992589;28;20061;-67
2022/09/16 08:33:44;;;;;;;9.73;1.75;;;;;;;14.40;50.13;99890.44;4992454;28;20056;-64
2022/09/16 08:36:15;;;;;;;14.10;1.60;;;;;;;14.56;50.06;99894.59;4974689;28;20057;-65
2022/09/16 08:38:43;;;;;;;7.35;1.83;;;;;;;15.25;48.08;99891.47;4991818;28;20046;-64
2022/09/16 08:41:34;;;;;;;7.63;1.77;;;;;;;15.54;47.29;99887.44;4991549;28;20042;-65
2022/09/16 08:44:24;;;;;;;15.52;1.80;;;;;;;15.47;46.71;99890.19;4991803;28;20089;-64
2022/09/16 08:46:58;;;;;;;8.70;1.58;;;;;;;15.34;47.11;99897.50;4982061;28;20042;-65
2022/09/16 08:49:45;;;;;;;17.45;2.35;;;;;;;16.59;44.52;99885.25;4992239;28;20073;-64
2022/09/16 08:52:27;;;;;;;12.60;1.45;;;;;;;17.35;42.34;99888.75;4991361;28;20074;-64
2022/09/16 08:55:01;;;;;;;9.88;2.55;;;;;;;17.19;42.78;99883.88;4991217;28;20069;-65
2022/09/16 08:57:31;;;;;;;6.63;1.50;;;;;;;16.89;43.08;99888.13;4991587;28;20053;-63
2022/09/16 09:00:06;;;;;;;11.13;1.40;;;;;;;16.21;44.94;99887.16;4992230;28;20038;-65
2022/09/16 09:02:36;;;;;;;14.93;2.50;;;;;;;16.34;44.99;99878.97;4990594;28;20497;-71
2022/09/16 09:05:16;;;;;;;51.50;4.47;;;;;;;17.77;42.37;99878.03;4991365;28;20062;-70
2022/09/16 09:08:14;;;;;;;14.18;1.80;;;;;;;17.71;41.22;99873.53;4990480;28;20072;-65
2022/09/16 09:10:53;;;;;;;24.45;2.25;;;;;;;17.00;42.03;99872.19;4986759;28;20073;-66
2022/09/16 09:13:31;;;;;;;11.90;1.83;;;;;;;17.25;41.09;99881.09;4971833;28;20553;-66
2022/09/16 09:16:37;;;;;;;12.10;1.65;;;;;;;16.81;42.07;99882.97;4972352;28;20074;-64
2022/09/16 09:19:22;;;;;;;22.55;2.75;;;;;;;15.65;45.22;99884.09;4971165;28;20045;-69
2022/09/16 09:22:12;;;;;;;12.48;2.20;;;;;;;15.27;46.12;99877.75;4971773;28;20052;-66
2022/09/16 09:24:55;;;;;;;8.68;1.55;;;;;;;17.17;41.85;99867.84;4972308;28;20052;-73
2022/09/16 09:27:36;;;;;;;12.85;2.00;;;;;;;17.79;39.91;99868.63;4957854;28;20051;-73
2022/09/16 09:30:16;;;;;;;6.53;1.42;;;;;;;17.45;39.17;99867.38;4954141;28;20050;-74
2022/09/16 09:33:20;;;;;;;13.73;2.10;;;;;;;18.80;36.67;99860.66;4954717;29;20538;-73
2022/09/16 09:36:31;;;;;;;21.08;1.80;;;;;;;19.90;34.76;99873.44;4952784;29;20110;-72
2022/09/16 09:39:06;;;;;;;13.80;2.10;;;;;;;19.24;35.62;99861.13;4954101;29;20047;-72
2022/09/16 09:41:42;;;;;;;12.27;1.88;;;;;;;20.07;34.42;99865.28;4953940;29;20427;-73
2022/09/16 09:44:47;;;;;;;8.73;1.35;;;;;;;20.62;32.79;99866.56;4953650;28;20410;-73
2022/09/16 09:47:21;;;;;;;12.60;3.03;;;;;;;19.61;34.52;99860.84;4877186;29;20064;-73
2022/09/16 09:49:56;;;;;;;7.60;1.77;;;;;;;19.79;34.18;99863.41;4898535;29;20145;-73
2022/09/16 09:52:30;;;;;;;5.80;1.58;;;;;;;20.40;32.78;99858.28;4897006;29;20064;-72
2022/09/16 09:55:05;;;;;;;7.63;2.00;;;;;;;20.31;32.39;99867.91;4893025;29;20144;-68
2022/09/16 09:57:31;;;;;;;34.17;3.80;;;;;;;20.59;30.57;99856.16;4893166;29;20072;-68
2022/09/16 09:59:58;;;;;;;9.23;1.98;;;;;;;20.91;30.26;99854.50;4893362;29;20048;-68
2022/09/16 10:02:25;;;;;;;21.17;2.40;;;;;;;19.31;31.88;99856.41;4888831;29;20057;-68
2022/09/16 10:04:52;;;;;;;17.42;2.00;;;;;;;19.79;30.95;99857.13;4893837;29;20528;-68
2022/09/16 10:07:21;;;;;;;12.82;2.08;;;;;;;20.72;29.75;99852.28;4894124;29;20064;-68
2022/09/16 10:09:54;;;;;;;11.77;2.03;;;;;;;21.07;29.23;99850.06;4892757;29;20061;-70
2022/09/16 10:12:27;;;;;;;8.30;1.70;;;;;;;20.97;29.23;99858.09;4909783;29;20176;-68
2022/09/16 10:14:54;;;;;;;10.38;1.95;;;;;;;20.70;29.79;99847.09;4911777;29;20052;-66
2022/09/16 10:17:21;;;;;;;10.52;2.10;;;;;;;19.57;31.25;99848.78;4916996;29;20403;-67
2022/09/16 10:19:58;;;;;;;16.13;1.95;;;;;;;18.32;33.64;99848.06;4936304;28;20047;-68
2022/09/16 10:22:32;;;;;;;8.50;1.70;;;;;;;18.67;33.67;99852.72;4936513;28;20052;-68
2022/09/16 10:25:06;;;;;;;9.68;1.77;;;;;;;19.50;32.55;99851.63;4936881;28;20039;-68
2022/09/16 10:27:35;;;;;;;6.13;1.83;;;;;;;19.57;32.35;99837.91;4936869;29;20040;-68
2022/09/16 10:30:09;;;;;;;16.95;1.95;;;;;;;18.93;32.58;99838.72;4941166;29;20091;-67
2022/09/16 10:33:07;;;;;;;10.75;3.28;;;;;;;17.51;34.77;99830.38;4936436;28;20195;-72
2022/09/16 10:35:36;;;;;;;10.35;1.80;;;;;;;16.73;35.64;99836.41;4930683;29;20044;-67
2022/09/16 10:38:11;;;;;;;9.10;2.28;;;;;;;16.79;36.12;99841.75;4935434;28;20059;-67
2022/09/16 10:41:09;;;;;;;13.63;1.65;;;;;;;17.22;35.62;99840.06;4935041;28;20547;-67
2022/09/16 10:43:38;;;;;;;12.75;1.88;;;;;;;17.55;35.30;99839.72;4924349;28;20054;-70
2022/09/16 10:46:13;;;;;;;9.70;1.45;;;;;;;17.75;35.18;99843.00;4936995;29;20059;-67
2022/09/16 10:48:41;;;;;;;15.38;1.80;;;;;;;17.28;36.09;99844.59;4936188;28;20047;-67
2022/09/16 10:51:21;;;;;;;9.63;1.85;;;;;;;17.17;36.46;99834.50;4935483;28;20061;-67
2022/09/16 10:53:54;;;;;;;12.35;2.22;;;;;;;17.59;35.57;99838.22;4935322;28;20055;-68
2022/09/16 10:56:30;;;;;;;9.27;1.50;;;;;;;18.70;33.81;99847.66;4935777;28;20075;-68
2022/09/16 10:59:08;;;;;;;7.30;1.40;;;;;;;19.10;33.15;99830.66;4935697;29;20068;-67
2022/09/16 11:01:43;;;;;;;13.00;1.60;;;;;;;18.76;31.87;99832.31;4933838;29;20496;-67
2022/09/16 11:05:01;;;;;;;8.93;1.55;;;;;;;19.13;31.76;99818.47;4953793;28;20422;-68
2022/09/16 11:07:41;;;;;;;9.52;1.73;;;;;;;18.54;32.21;99823.88;4926522;28;20046;-67
2022/09/16 11:10:28;;;;;;;9.93;1.50;;;;;;;18.65;32.59;99833.09;4973246;28;20058;-70
2022/09/16 11:13:19;;;;;;;11.38;1.70;;;;;;;18.83;32.25;99833.03;4992426;28;20057;-68
2022/09/16 11:15:54;;;;;;;9.60;1.75;;;;;;;18.66;32.63;99816.59;4992278;28;20049;-68
2022/09/16 11:18:34;;;;;;;10.43;1.50;;;;;;;19.81;31.16;99823.16;4993318;28;20046;-68
2022/09/16 11:21:07;;;;;;;15.65;2.10;;;;;;;19.16;31.02;99823.44;4991883;28;20046;-68
2022/09/16 11:24:07;;;;;;;11.20;1.58;;;;;;;19.88;29.88;99814.84;4992577;28;20093;-68
2022/09/16 11:26:34;;;;;;;13.15;3.00;;;;;;;20.15;29.52;99818.63;4981251;28;20054;-68
2022/09/16 11:29:30;;;;;;;69.07;9.10;;;;;;;21.63;27.90;99814.53;4992309;28;20046;-68
2022/09/16 11:32:08;;;;;;;8.57;2.22;;;;;;;22.16;27.19;99810.22;4992192;28;20054;-68
2022/09/16 11:34:47;;;;;;;13.95;1.70;;;;;;;21.73;27.37;99811.09;4978219;28;20039;-69
2022/09/16 11:37:28;;;;;;;8.55;1.40;;;;;;;22.53;25.58;99814.91;4972150;28;20055;-68
2022/09/16 11:40:30;;;;;;;17.98;1.45;;;;;;;22.51;25.68;99806.16;4972516;28;20097;-69
2022/09/16 11:43:20;;;;;;;9.00;1.50;;;;;;;23.16;25.32;99804.97;4972621;28;20201;-68
2022/09/16 11:46:14;;;;;;;5.35;1.63;;;;;;;23.14;24.16;99804.38;4972417;28;20070;-68
2022/09/16 11:48:44;;;;;;;10.00;3.80;;;;;;;22.98;24.17;99810.81;4972125;28;20042;-68
2022/09/16 11:51:18;;;;;;;11.75;3.00;;;;;;;23.75;24.16;99798.31;4972188;28;20055;-69
2022/09/16 11:54:29;;;;;;;7.70;1.80;;;;;;;24.18;23.44;99796.22;4973535;28;20416;-68
2022/09/16 11:57:01;;;;;;;10.95;1.30;;;;;;;25.77;21.24;99778.28;4935779;28;20399;-68
2022/09/16 11:59:38;;;;;;;8.95;1.52;;;;;;;25.18;22.27;99786.53;4973146;28;20050;-68
2022/09/16 12:02:16;;;;;;;5.97;1.40;;;;;;;23.98;23.20;99788.78;4973182;28;20061;-68
2022/09/16 12:04:50;;;;;;;6.93;1.58;;;;;;;23.16;23.93;99791.28;4972809;28;20458;-68
2022/09/16 12:07:19;;;;;;;8.73;1.70;;;;;;;24.53;22.08;99787.19;4972965;28;20086;-68
2022/09/16 12:09:58;;;;;;;12.50;3.20;;;;;;;22.76;24.23;99787.19;4973544;28;20054;-67
2022/09/16 12:12:32;;;;;;;23.67;4.57;;;;;;;21.17;26.63;99788.59;4990733;28;20043;-68
2022/09/16 12:15:06;;;;;;;16.13;3.72;;;;;;;21.08;26.98;99783.56;4992012;28;20406;-67
2022/09/16 12:17:36;;;;;;;10.27;1.20;;;;;;;20.40;27.73;99779.28;4992595;28;20450;-68
2022/09/16 12:20:24;;;;;;;12.55;2.03;;;;;;;20.47;27.43;99766.34;4991720;28;20042;-68
2022/09/16 12:23:16;;;;;;;7.00;1.25;;;;;;;20.27;28.04;99768.69;4991196;28;20043;-68
2022/09/16 12:25:56;;;;;;;4.13;1.25;;;;;;;20.81;27.11;99758.94;4991587;28;20066;-68
2022/09/16 12:28:30;;;;;;;7.10;1.20;;;;;;;21.36;26.67;99757.22;4992812;28;20046;-68
2022/09/16 12:31:15;;;;;;;6.63;2.05;;;;;;;22.21;25.66;99755.59;4990749;28;20046;-68
2022/09/16 12:34:10;;;;;;;9.38;1.33;;;;;;;22.89;23.47;99747.63;4977403;28;20054;-68
2022/09/16 12:36:44;;;;;;;26.90;2.28;;;;;;;22.58;24.25;99754.81;4990495;28;20054;-71
2022/09/16 12:39:11;;;;;;;11.38;1.70;;;;;;;22.83;23.61;99748.66;4990731;28;20056;-71
2022/09/16 12:41:59;;;;;;;6.70;1.58;;;;;;;24.09;22.64;99757.59;4991715;28;20053;-70
2022/09/16 12:44:28;;;;;;;5.90;1.27;;;;;;;23.45;22.98;99750.59;4989489;28;20121;-70
2022/09/16 12:47:05;;;;;;;8.18;1.60;;;;;;;20.40;26.90;99743.88;4991507;28;20498;-76
2022/09/16 12:50:09;;;;;;;6.68;1.17;;;;;;;19.38;28.68;99751.03;4991547;28;20053;-76
2022/09/16 12:52:48;;;;;;;13.90;1.40;;;;;;;18.76;30.26;99753.50;4987623;28;20046;-76
2022/09/16 12:55:30;;;;;;;7.00;1.30;;;;;;;19.53;29.20;99755.13;4991784;28;20053;-75
2022/09/16 12:58:15;;;;;;;9.35;1.20;;;;;;;19.66;28.97;99760.28;4991811;28;20084;-75
2022/09/16 13:00:57;;;;;;;9.90;1.52;;;;;;;21.40;27.46;99752.88;4991733;28;20051;-75
2022/09/16 13:03:27;;;;;;;4.93;1.35;;;;;;;21.74;26.25;99752.72;4990964;28;20046;-75
2022/09/16 13:05:57;;;;;;;6.50;1.58;;;;;;;20.28;28.17;99745.81;4991006;28;20053;-76
2022/09/16 13:08:29;;;;;;;7.07;1.48;;;;;;;19.02;30.04;99750.28;4990614;28;20057;-76
2022/09/16 13:10:59;;;;;;;7.40;1.15;;;;;;;18.95;30.21;99741.44;4990981;28;20129;-76
2022/09/16 13:13:49;;;;;;;5.65;1.48;;;;;;;18.68;31.04;99732.13;4990585;28;20046;-75
2022/09/16 13:16:33;;;;;;;9.65;1.38;;;;;;;18.41;31.49;99738.06;4990844;28;20046;-75
2022/09/16 13:19:25;;;;;;;6.38;1.10;;;;;;;18.11;30.73;99731.84;4990641;28;20056;-75
2022/09/16 13:21:56;;;;;;;;;;;;;;;17.89;31.26;99734.28;4990794;28;20069;-75
2022/09/16 13:24:36;;;;;;;14.80;1.48;;;;;;;17.72;32.16;99731.44;4991053;28;19922;-76
2022/09/16 13:27:27;;;;;;;8.43;1.42;;;;;;;17.02;32.47;99731.88;4990378;28;20414;-75
2022/09/16 13:30:12;;;;;;;9.25;1.10;;;;;;;16.93;32.58;99722.44;4989961;28;20042;-76
2022/09/16 13:32:58;;;;;;;5.18;1.05;;;;;;;17.13;32.20;99736.56;4990455;28;20049;-76
2022/09/16 13:35:41;;;;;;;4.28;0.90;;;;;;;16.95;32.13;99721.13;4989992;28;20061;-76
2022/09/16 13:38:13;;;;;;;8.18;1.50;;;;;;;16.98;31.32;99726.09;4990972;28;20050;-76
2022/09/16 13:40:54;;;;;;;6.72;1.45;;;;;;;16.90;31.26;99721.00;4990736;28;20509;-76
2022/09/16 13:43:47;;;;;;;7.82;1.50;;;;;;;17.06;31.50;99720.38;4990598;28;20046;-75
2022/09/16 13:46:25;;;;;;;7.35;1.15;;;;;;;16.71;32.26;99716.63;4971164;28;20070;-78
2022/09/16 13:49:04;;;;;;;9.57;1.80;;;;;;;16.89;32.05;99711.22;4990742;28;20517;-76
2022/09/16 13:51:44;;;;;;;8.48;1.10;;;;;;;16.72;32.18;99702.88;4989876;28;20046;-76
2022/09/16 13:54:52;;;;;;;7.50;1.55;;;;;;;16.55;32.54;99704.50;4991347;28;20046;-76
2022/09/16 13:57:48;;;;;;;7.57;1.20;;;;;;;16.69;32.70;99705.19;4990950;28;20460;-76
2022/09/16 14:00:52;;;;;;;6.57;1.00;;;;;;;16.96;32.13;99698.41;4995906;28;20050;-76
2022/09/16 14:03:35;;;;;;;4.57;1.10;;;;;;;16.91;32.35;99711.81;4975138;28;20050;-78
2022/09/16 14:06:39;;;;;;;5.20;1.10;;;;;;;17.19;32.03;99699.59;4997045;28;20050;-78
2022/09/16 14:09:32;;;;;;;9.50;1.35;;;;;;;16.82;32.36;99715.88;4997311;28;20046;-77
2022/09/16 14:12:30;;;;;;;9.15;1.50;;;;;;;16.75;31.17;99696.16;4982004;28;20121;-77
2022/09/16 14:14:59;;;;;;;9.07;1.50;;;;;;;17.02;30.75;99704.78;4977333;28;20513;-77
2022/09/16 14:17:36;;;;;;;9.55;1.67;;;;;;;16.98;30.75;99707.13;4977302;28;20066;-77
2022/09/16 14:20:04;;;;;;;9.65;1.60;;;;;;;16.92;31.15;99705.34;4976367;28;20066;-77
2022/09/16 14:22:32;;;;;;;15.65;1.45;;;;;;;16.86;30.13;99704.38;4977803;28;20052;-77
2022/09/16 14:24:59;;;;;;;8.65;1.33;;;;;;;16.65;28.60;99696.69;4977057;28;20053;-76
2022/09/16 14:27:44;;;;;;;9.27;3.65;;;;;;;16.65;28.77;99692.09;4976925;28;20081;-75
2022/09/16 14:30:16;;;;;;;9.55;2.53;;;;;;;16.59;28.95;99703.00;4976648;28;20509;-76
2022/09/16 14:32:46;;;;;;;5.43;1.05;;;;;;;16.48;29.15;99688.31;4976116;28;20118;-76
2022/09/16 14:35:23;;;;;;;6.70;1.60;;;;;;;16.36;30.27;99696.31;4976873;28;20056;-69
2022/09/16 14:37:55;;;;;;;6.53;1.20;;;;;;;16.52;30.42;99694.94;4976671;28;20401;-70
2022/09/16 14:40:24;;;;;;;8.27;1.20;;;;;;;16.51;30.35;99701.44;4976193;28;20051;-70
2022/09/16 14:43:07;;;;;;;7.75;1.67;;;;;;;16.53;30.25;99696.59;4976139;28;20511;-70
2022/09/16 14:45:36;;;;;;;6.70;1.33;;;;;;;16.55;30.28;99685.56;4976595;28;20172;-70
2022/09/16 14:48:08;;;;;;;7.55;1.48;;;;;;;16.73;30.04;99692.84;4975268;28;20045;-70
2022/09/16 14:50:44;;;;;;;9.52;1.63;;;;;;;16.76;30.48;99687.00;4976565;28;20062;-70
2022/09/16 14:53:25;;;;;;;8.35;2.63;;;;;;;16.76;30.51;99681.56;4977847;28;20047;-69
2022/09/16 14:56:01;;;;;;;6.55;1.40;;;;;;;16.80;30.71;99683.59;4975658;28;20047;-76
2022/09/16 14:58:30;;;;;;;6.68;1.35;;;;;;;16.88;30.89;99675.16;4976683;28;20101;-77
2022/09/16 15:01:10;;;;;;;7.75;3.35;;;;;;;16.98;30.95;99674.63;4966168;28;20100;-71
2022/09/16 15:03:52;;;;;;;12.25;2.72;;;;;;;16.87;31.52;99672.69;4975610;28;20470;-70
2022/09/16 15:06:30;;;;;;;12.32;2.08;;;;;;;16.82;31.82;99677.97;4972639;28;20364;-70